Time;durP1;ratioP1;P1;durP2;ratioP2;P2;SDS_P1;SDS_P2;PMS_P1;PMS_P2;Temp;Humidity;BMP_temperature;BMP_pressure;BME280_temperature;BME280_humidity;BME280_pressure;Samples;Min_cycle;Max_cycle;Signal;HPM_P1;HPM_P2
2022/03/03 00:01:44;;;;;;;23.35;14.98;;;;;;;;;;5060511;27;99068;-66
2022/03/03 00:04:11;;;;;;;21.67;15.27;;;;;;;;;;5059614;27;99186;-66
2022/03/03 00:06:38;;;;;;;26.75;15.85;;;;;;;;;;5059418;27;99294;-66
2022/03/03 00:09:05;;;;;;;21.80;15.57;;;;;;;;;;5068740;27;98693;-66
2022/03/03 00:11:32;;;;;;;21.30;15.18;;;;;;;;;;5062381;27;98994;-66
2022/03/03 00:13:59;;;;;;;25.05;16.65;;;;;;;;;;5065281;27;100229;-66
2022/03/03 00:16:26;;;;;;;26.33;17.38;;;;;;;;;;5056187;27;100485;-65
2022/03/03 00:18:52;;;;;;;22.98;15.05;;;;;;;;;;5072500;27;100246;-66
2022/03/03 00:21:18;;;;;;;21.23;15.25;;;;;;;;;;5058674;27;99548;-65
2022/03/03 00:23:45;;;;;;;24.08;16.02;;;;;;;;;;5064164;27;99649;-65
2022/03/03 00:26:11;;;;;;;22.40;15.43;;;;;;;;;;5064665;27;99626;-66
2022/03/03 00:28:37;;;;;;;21.83;15.80;;;;;;;;;;5066336;27;98510;-66
2022/03/03 00:31:05;;;;;;;22.05;15.38;;;;;;;;;;5064557;27;99029;-67
2022/03/03 00:33:31;;;;;;;23.88;16.10;;;;;;;;;;5057741;27;99518;-66
2022/03/03 00:35:57;;;;;;;22.25;14.85;;;;;;;;;;5056753;27;98609;-66
2022/03/03 00:38:24;;;;;;;21.17;15.15;;;;;;;;;;5067441;27;100532;-66
2022/03/03 00:40:50;;;;;;;25.98;16.13;;;;;;;;;;5066968;27;100522;-66
2022/03/03 00:43:17;;;;;;;33.17;16.05;;;;;;;;;;5064209;27;99843;-66
2022/03/03 00:45:43;;;;;;;25.10;16.70;;;;;;;;;;5061324;27;100317;-67
2022/03/03 00:48:09;;;;;;;20.38;15.25;;;;;;;;;;5061073;27;98614;-66
2022/03/03 00:50:36;;;;;;;26.65;17.35;;;;;;;;;;5061268;27;99812;-66
2022/03/03 00:53:02;;;;;;;22.05;15.45;;;;;;;;;;5068164;27;99689;-66
2022/03/03 00:55:29;;;;;;;17.55;14.65;;;;;;;;;;5067700;27;97833;-66
2022/03/03 00:57:55;;;;;;;22.90;15.35;;;;;;;;;;5068847;27;99042;-67
2022/03/03 01:00:22;;;;;;;24.17;15.30;;;;;;;;;;5063421;27;99523;-66
2022/03/03 01:02:49;;;;;;;22.35;15.82;;;;;;;;;;5070651;27;99296;-66
2022/03/03 01:05:16;;;;;;;27.13;16.88;;;;;;;;;;5055065;27;99367;-66
2022/03/03 01:07:43;;;;;;;28.45;17.00;;;;;;;;;;5065235;27;98902;-66
2022/03/03 01:10:10;;;;;;;21.63;15.63;;;;;;;;;;5063210;27;100548;-66
2022/03/03 01:12:36;;;;;;;24.15;15.23;;;;;;;;;;5059957;27;99993;-66
2022/03/03 01:15:04;;;;;;;23.02;16.02;;;;;;;;;;5055362;27;100310;-66
2022/03/03 01:17:31;;;;;;;22.17;15.98;;;;;;;;;;5058102;27;100085;-66
2022/03/03 01:19:57;;;;;;;22.75;16.10;;;;;;;;;;5061336;27;99586;-67
2022/03/03 01:22:23;;;;;;;21.17;15.50;;;;;;;;;;5060377;27;98556;-66
2022/03/03 01:24:50;;;;;;;23.15;16.27;;;;;;;;;;5063591;27;100230;-66
2022/03/03 01:27:17;;;;;;;24.13;17.73;;;;;;;;;;5060374;27;99571;-66
2022/03/03 01:29:43;;;;;;;21.63;16.58;;;;;;;;;;5056383;27;101186;-66
2022/03/03 01:32:09;;;;;;;29.55;15.98;;;;;;;;;;5068249;27;100593;-66
2022/03/03 01:34:37;;;;;;;27.60;16.38;;;;;;;;;;5065824;27;98631;-67
2022/03/03 01:37:03;;;;;;;22.40;16.60;;;;;;;;;;5057177;27;100348;-65
2022/03/03 01:39:30;;;;;;;25.65;16.95;;;;;;;;;;5058790;27;100363;-66
2022/03/03 01:41:57;;;;;;;23.85;16.60;;;;;;;;;;5058115;27;98535;-66
2022/03/03 01:44:24;;;;;;;21.55;16.10;;;;;;;;;;5058788;27;100035;-66
2022/03/03 01:46:52;;;;;;;24.13;16.10;;;;;;;;;;5068315;27;100416;-66
2022/03/03 01:49:18;;;;;;;29.67;16.25;;;;;;;;;;5068764;27;100209;-66
2022/03/03 01:51:44;;;;;;;24.23;15.85;;;;;;;;;;5065251;27;100266;-66
2022/03/03 01:54:11;;;;;;;25.55;15.25;;;;;;;;;;5057650;27;100011;-66
2022/03/03 01:56:39;;;;;;;20.20;15.13;;;;;;;;;;5064788;27;100107;-66
2022/03/03 01:59:05;;;;;;;24.65;15.77;;;;;;;;;;5065016;27;99598;-66
2022/03/03 02:01:32;;;;;;;24.67;16.33;;;;;;;;;;5055423;27;99014;-66
2022/03/03 02:03:58;;;;;;;19.15;15.30;;;;;;;;;;5058615;27;99931;-65
2022/03/03 02:06:25;;;;;;;23.50;15.73;;;;;;;;;;5057939;27;100353;-66
2022/03/03 02:08:54;;;;;;;20.90;14.85;;;;;;;;;;5060562;27;97825;-66
2022/03/03 02:11:20;;;;;;;19.88;14.90;;;;;;;;;;5060616;27;100298;-66
2022/03/03 02:13:47;;;;;;;23.50;16.70;;;;;;;;;;5067472;27;98542;-66
2022/03/03 02:16:13;;;;;;;23.67;16.98;;;;;;;;;;5052268;27;99394;-66
2022/03/03 02:18:40;;;;;;;21.42;15.07;;;;;;;;;;5057049;27;99701;-66
2022/03/03 02:21:13;;;;;;;22.60;15.80;;;;;;;;;;5060092;27;98645;-66
2022/03/03 02:23:40;;;;;;;23.50;17.10;;;;;;;;;;5062650;27;100068;-66
2022/03/03 02:26:15;;;;;;;25.20;17.20;;;;;;;;;;5062594;27;99300;-66
2022/03/03 02:28:42;;;;;;;27.20;18.15;;;;;;;;;;5064748;27;98542;-66
2022/03/03 02:31:08;;;;;;;26.33;18.30;;;;;;;;;;5064602;27;99667;-66
2022/03/03 02:33:35;;;;;;;22.98;16.48;;;;;;;;;;5066203;27;97859;-66
2022/03/03 02:36:17;;;;;;;24.08;16.23;;;;;;;;;;5058952;27;99648;-66
2022/03/03 02:38:44;;;;;;;24.58;17.00;;;;;;;;;;5058583;27;99866;-66
2022/03/03 02:41:11;;;;;;;25.70;17.48;;;;;;;;;;5064599;27;99508;-66
2022/03/03 02:43:38;;;;;;;23.75;17.35;;;;;;;;;;5059670;27;101087;-66
2022/03/03 02:46:07;;;;;;;25.73;16.40;;;;;;;;;;5064742;27;100497;-66
2022/03/03 02:48:34;;;;;;;27.05;16.90;;;;;;;;;;5063853;27;98694;-67
2022/03/03 02:51:00;;;;;;;22.45;17.35;;;;;;;;;;5061878;27;98990;-66
2022/03/03 02:53:27;;;;;;;28.08;18.23;;;;;;;;;;5050322;27;98637;-66
2022/03/03 02:55:53;;;;;;;22.98;16.90;;;;;;;;;;5060868;27;99362;-66
2022/03/03 02:58:19;;;;;;;25.52;17.20;;;;;;;;;;5062120;27;98578;-66
2022/03/03 03:00:47;;;;;;;26.77;17.05;;;;;;;;;;5056532;27;98672;-65
2022/03/03 03:03:14;;;;;;;24.52;16.95;;;;;;;;;;5058479;27;100286;-65
2022/03/03 03:05:41;;;;;;;23.92;16.90;;;;;;;;;;5055783;27;100206;-66
2022/03/03 03:08:07;;;;;;;28.88;17.73;;;;;;;;;;5062668;27;99164;-65
2022/03/03 03:10:34;;;;;;;25.67;16.70;;;;;;;;;;5064353;27;100824;-65
2022/03/03 03:13:00;;;;;;;23.77;16.20;;;;;;;;;;5060971;27;100455;-65
2022/03/03 03:15:26;;;;;;;24.63;18.17;;;;;;;;;;5064337;27;100400;-65
2022/03/03 03:17:53;;;;;;;26.70;18.23;;;;;;;;;;5056764;27;102157;-66
2022/03/03 03:20:19;;;;;;;23.90;17.00;;;;;;;;;;5057067;27;98776;-66
2022/03/03 03:22:46;;;;;;;24.75;17.00;;;;;;;;;;5063914;27;99319;-66
2022/03/03 03:25:13;;;;;;;25.42;17.60;;;;;;;;;;5061805;27;100560;-66
2022/03/03 03:27:40;;;;;;;30.27;17.55;;;;;;;;;;5063980;27;98956;-66
2022/03/03 03:30:07;;;;;;;31.88;18.10;;;;;;;;;;5023500;27;1108300;-66
2022/03/03 03:32:34;;;;;;;24.55;17.25;;;;;;;;;;5056973;27;100165;-65
2022/03/03 03:35:00;;;;;;;26.77;17.45;;;;;;;;;;5062161;27;99211;-66
2022/03/03 03:37:28;;;;;;;28.90;18.35;;;;;;;;;;5062011;27;100421;-65
2022/03/03 03:39:54;;;;;;;25.38;17.02;;;;;;;;;;5061768;27;98588;-65
2022/03/03 03:42:20;;;;;;;32.30;17.88;;;;;;;;;;5056814;27;100059;-65
2022/03/03 03:44:47;;;;;;;25.80;17.98;;;;;;;;;;5057431;27;99933;-65
2022/03/03 03:47:13;;;;;;;24.00;17.40;;;;;;;;;;5059139;27;97907;-66
2022/03/03 03:49:40;;;;;;;28.25;17.58;;;;;;;;;;5061860;27;99270;-66
2022/03/03 03:52:06;;;;;;;32.47;18.65;;;;;;;;;;5064554;27;99539;-66
2022/03/03 03:54:33;;;;;;;23.92;17.48;;;;;;;;;;5060133;27;99322;-66
2022/03/03 03:56:59;;;;;;;26.77;17.40;;;;;;;;;;5059955;27;100591;-66
2022/03/03 03:59:25;;;;;;;29.08;17.88;;;;;;;;;;5061257;27;99831;-66
2022/03/03 04:01:52;;;;;;;25.00;18.42;;;;;;;;;;5063686;27;98950;-66
2022/03/03 04:04:18;;;;;;;26.65;18.85;;;;;;;;;;5051260;27;100017;-65
2022/03/03 04:06:45;;;;;;;27.20;18.88;;;;;;;;;;5062752;27;100175;-65
2022/03/03 04:09:11;;;;;;;27.98;17.67;;;;;;;;;;5060178;27;99166;-66
2022/03/03 04:11:38;;;;;;;29.88;18.55;;;;;;;;;;5060531;27;98953;-66
2022/03/03 04:14:04;;;;;;;29.20;16.85;;;;;;;;;;5064455;27;98859;-66
2022/03/03 04:16:31;;;;;;;31.02;19.05;;;;;;;;;;5058220;27;99205;-65
2022/03/03 04:18:57;;;;;;;22.83;16.85;;;;;;;;;;5063628;27;99424;-65
2022/03/03 04:21:23;;;;;;;24.80;17.77;;;;;;;;;;5062406;27;101135;-65
2022/03/03 04:23:50;;;;;;;26.83;17.92;;;;;;;;;;5055828;27;100348;-66
2022/03/03 04:26:16;;;;;;;27.27;17.05;;;;;;;;;;5057986;27;99110;-66
2022/03/03 04:28:42;;;;;;;27.00;17.98;;;;;;;;;;5064256;27;101141;-66
2022/03/03 04:31:09;;;;;;;30.48;18.83;;;;;;;;;;5065218;27;99948;-66
2022/03/03 04:33:35;;;;;;;26.25;18.50;;;;;;;;;;5063517;27;98806;-66
2022/03/03 04:36:02;;;;;;;26.30;18.30;;;;;;;;;;5061422;27;98974;-67
2022/03/03 04:38:28;;;;;;;26.15;18.48;;;;;;;;;;5069313;27;99729;-66
2022/03/03 04:40:54;;;;;;;28.20;19.13;;;;;;;;;;5060816;27;99115;-66
2022/03/03 04:43:21;;;;;;;26.90;18.98;;;;;;;;;;5054540;27;100545;-66
2022/03/03 04:45:47;;;;;;;29.55;18.48;;;;;;;;;;5061054;27;98609;-66
2022/03/03 04:48:14;;;;;;;30.90;17.73;;;;;;;;;;5061483;27;100407;-66
2022/03/03 04:50:40;;;;;;;28.42;19.33;;;;;;;;;;5061540;27;99497;-65
2022/03/03 04:53:06;;;;;;;29.70;19.08;;;;;;;;;;5061657;27;98735;-65
2022/03/03 04:55:33;;;;;;;24.55;17.83;;;;;;;;;;5061482;27;100342;-65
2022/03/03 04:58:04;;;;;;;28.45;17.85;;;;;;;;;;5060602;27;99367;-66
2022/03/03 05:00:31;;;;;;;25.70;17.02;;;;;;;;;;5061905;27;99113;-66
2022/03/03 05:02:57;;;;;;;25.20;18.55;;;;;;;;;;5057733;27;100529;-66
2022/03/03 05:05:24;;;;;;;29.02;18.70;;;;;;;;;;5066601;27;98579;-66
2022/03/03 05:07:50;;;;;;;25.08;18.15;;;;;;;;;;5056508;27;100098;-66
2022/03/03 05:10:16;;;;;;;24.42;19.63;;;;;;;;;;5055257;27;99416;-66
2022/03/03 05:12:43;;;;;;;25.17;18.00;;;;;;;;;;5061234;27;98595;-66
2022/03/03 05:15:09;;;;;;;29.52;18.48;;;;;;;;;;5059752;27;99131;-66
2022/03/03 05:17:35;;;;;;;27.40;18.42;;;;;;;;;;5067221;27;99912;-66
2022/03/03 05:20:03;;;;;;;27.60;18.38;;;;;;;;;;5060986;27;99437;-66
2022/03/03 05:22:30;;;;;;;28.10;19.73;;;;;;;;;;5070932;27;100052;-66
2022/03/03 05:24:56;;;;;;;27.25;18.73;;;;;;;;;;5068671;27;99283;-66
2022/03/03 05:27:22;;;;;;;31.08;18.85;;;;;;;;;;5068806;27;99333;-66
2022/03/03 05:29:50;;;;;;;24.45;17.90;;;;;;;;;;5058306;27;99687;-65
2022/03/03 05:32:16;;;;;;;27.83;18.15;;;;;;;;;;5066043;27;99314;-66
2022/03/03 05:34:42;;;;;;;27.23;17.77;;;;;;;;;;5058700;27;99713;-64
2022/03/03 05:37:08;;;;;;;25.95;18.27;;;;;;;;;;5067891;27;100138;-65
2022/03/03 05:39:37;;;;;;;25.60;18.02;;;;;;;;;;5058753;27;100186;-66
2022/03/03 05:42:03;;;;;;;26.48;18.27;;;;;;;;;;5063997;27;99960;-66
2022/03/03 05:44:30;;;;;;;25.33;17.63;;;;;;;;;;5071370;27;100078;-65
2022/03/03 05:46:57;;;;;;;30.30;18.30;;;;;;;;;;5059984;27;99302;-66
2022/03/03 05:49:25;;;;;;;24.65;18.38;;;;;;;;;;5066247;27;99107;-66
2022/03/03 05:51:51;;;;;;;23.55;18.40;;;;;;;;;;5058637;27;99670;-65
2022/03/03 05:54:17;;;;;;;25.65;18.60;;;;;;;;;;5062909;27;99095;-67
2022/03/03 05:56:45;;;;;;;27.23;18.05;;;;;;;;;;5059218;27;101230;-65
2022/03/03 05:59:13;;;;;;;30.42;17.85;;;;;;;;;;5067602;27;99542;-66
2022/03/03 06:01:40;;;;;;;31.65;19.35;;;;;;;;;;5066356;27;100004;-65
2022/03/03 06:04:07;;;;;;;31.60;19.63;;;;;;;;;;5055670;27;99207;-65
2022/03/03 06:06:36;;;;;;;25.25;18.05;;;;;;;;;;5068281;27;98584;-65
2022/03/03 06:09:02;;;;;;;29.67;18.10;;;;;;;;;;5059034;27;99741;-65
2022/03/03 06:11:29;;;;;;;28.88;19.45;;;;;;;;;;5065785;27;98657;-66
2022/03/03 06:14:06;;;;;;;25.63;18.60;;;;;;;;;;5067472;27;99268;-66
2022/03/03 06:16:33;;;;;;;28.23;18.55;;;;;;;;;;5058595;27;99559;-66
2022/03/03 06:18:59;;;;;;;26.92;19.15;;;;;;;;;;5066137;27;98569;-65
2022/03/03 06:21:26;;;;;;;27.80;19.15;;;;;;;;;;5059300;27;101008;-65
2022/03/03 06:23:52;;;;;;;31.15;19.30;;;;;;;;;;5065926;27;99371;-65
2022/03/03 06:26:19;;;;;;;24.80;17.10;;;;;;;;;;5070354;27;98878;-65
2022/03/03 06:28:46;;;;;;;30.45;20.23;;;;;;;;;;5066886;27;100135;-65
2022/03/03 06:31:13;;;;;;;25.35;17.95;;;;;;;;;;5062424;27;99148;-65
2022/03/03 06:33:40;;;;;;;25.70;16.95;;;;;;;;;;5056771;27;100119;-67
2022/03/03 06:36:07;;;;;;;26.42;18.10;;;;;;;;;;5066225;27;99542;-66
2022/03/03 06:38:33;;;;;;;29.88;17.48;;;;;;;;;;5059488;27;98558;-66
2022/03/03 06:41:05;;;;;;;25.30;17.85;;;;;;;;;;5066780;27;99703;-67
2022/03/03 06:43:32;;;;;;;26.85;19.17;;;;;;;;;;5065886;27;102292;-67
2022/03/03 06:45:58;;;;;;;26.30;17.77;;;;;;;;;;5050730;27;99708;-66
2022/03/03 06:48:25;;;;;;;22.63;17.60;;;;;;;;;;5062985;27;101325;-66
2022/03/03 06:50:53;;;;;;;26.83;17.10;;;;;;;;;;5058287;27;98575;-66
2022/03/03 06:53:20;;;;;;;29.13;17.33;;;;;;;;;;5066816;27;100398;-66
2022/03/03 06:55:48;;;;;;;25.48;17.70;;;;;;;;;;5059332;27;99660;-66
2022/03/03 06:58:16;;;;;;;26.40;18.33;;;;;;;;;;5054908;27;99239;-65
2022/03/03 07:00:47;;;;;;;33.75;18.58;;;;;;;;;;5055136;27;100020;-66
2022/03/03 07:03:14;;;;;;;29.27;18.42;;;;;;;;;;5063543;27;99699;-66
2022/03/03 07:05:40;;;;;;;26.33;17.15;;;;;;;;;;5051658;27;99141;-66
2022/03/03 07:08:07;;;;;;;25.48;17.52;;;;;;;;;;5048042;27;99111;-66
2022/03/03 07:10:33;;;;;;;29.58;18.55;;;;;;;;;;5059242;27;101126;-66
2022/03/03 07:12:59;;;;;;;24.38;16.20;;;;;;;;;;5063422;27;100066;-66
2022/03/03 07:15:26;;;;;;;26.27;17.73;;;;;;;;;;5065706;27;98652;-66
2022/03/03 07:17:56;;;;;;;33.40;18.02;;;;;;;;;;5065729;27;98536;-66
2022/03/03 07:20:41;;;;;;;28.83;17.05;;;;;;;;;;5065056;27;99272;-66
2022/03/03 07:23:11;;;;;;;28.05;17.23;;;;;;;;;;5057071;27;100088;-66
2022/03/03 07:25:48;;;;;;;25.70;17.20;;;;;;;;;;5062446;27;98639;-66
2022/03/03 07:28:17;;;;;;;22.35;15.93;;;;;;;;;;5058011;27;100544;-66
2022/03/03 07:30:44;;;;;;;26.63;17.48;;;;;;;;;;5056790;27;100067;-65
2022/03/03 07:33:12;;;;;;;25.65;17.20;;;;;;;;;;5060610;27;100406;-67
2022/03/03 07:35:40;;;;;;;28.60;18.17;;;;;;;;;;5055400;27;101046;-66
2022/03/03 07:38:14;;;;;;;24.98;17.17;;;;;;;;;;5054566;27;98616;-66
2022/03/03 07:40:44;;;;;;;20.98;16.42;;;;;;;;;;5056367;27;99991;-66
2022/03/03 07:43:11;;;;;;;29.30;17.13;;;;;;;;;;5054321;27;101633;-66
2022/03/03 07:45:39;;;;;;;21.58;15.85;;;;;;;;;;5058580;27;99913;-65
2022/03/03 07:48:05;;;;;;;25.85;17.30;;;;;;;;;;5057909;27;100373;-66
2022/03/03 07:50:32;;;;;;;24.30;15.48;;;;;;;;;;5060533;27;100051;-66
2022/03/03 07:52:58;;;;;;;24.23;16.17;;;;;;;;;;5066044;27;97823;-66
2022/03/03 07:55:24;;;;;;;32.67;16.20;;;;;;;;;;5068155;27;99270;-66
2022/03/03 07:57:58;;;;;;;26.10;16.63;;;;;;;;;;5057849;27;98609;-66
2022/03/03 08:00:27;;;;;;;31.73;16.77;;;;;;;;;;5061714;27;101189;-67
2022/03/03 08:02:55;;;;;;;23.17;15.15;;;;;;;;;;5058308;27;100355;-66
2022/03/03 08:05:22;;;;;;;24.63;14.80;;;;;;;;;;5066400;27;98522;-66
2022/03/03 08:07:49;;;;;;;23.83;13.95;;;;;;;;;;5068737;27;100139;-66
2022/03/03 08:10:15;;;;;;;20.63;15.13;;;;;;;;;;5066490;27;99972;-66
2022/03/03 08:12:42;;;;;;;24.27;15.20;;;;;;;;;;5065263;27;98539;-66
2022/03/03 08:15:10;;;;;;;31.02;16.45;;;;;;;;;;5065910;27;100308;-66
2022/03/03 08:17:37;;;;;;;23.63;15.95;;;;;;;;;;5060764;27;99269;-66
2022/03/03 08:20:04;;;;;;;22.85;16.58;;;;;;;;;;5058538;27;99416;-67
2022/03/03 08:22:32;;;;;;;20.45;16.15;;;;;;;;;;5059081;27;100613;-67
2022/03/03 08:24:59;;;;;;;23.25;15.35;;;;;;;;;;5062552;27;99266;-67
2022/03/03 08:27:26;;;;;;;28.58;16.95;;;;;;;;;;5067233;27;99726;-67
2022/03/03 08:29:54;;;;;;;25.98;15.25;;;;;;;;;;5063652;27;99525;-66
2022/03/03 08:32:21;;;;;;;22.75;16.63;;;;;;;;;;5059809;27;98640;-67
2022/03/03 08:34:54;;;;;;;29.88;16.20;;;;;;;;;;5061562;27;100851;-67
2022/03/03 08:37:25;;;;;;;22.42;15.80;;;;;;;;;;5069004;27;99711;-66
2022/03/03 08:39:52;;;;;;;25.73;17.17;;;;;;;;;;5063286;27;98772;-66
2022/03/03 08:42:23;;;;;;;20.90;15.43;;;;;;;;;;5066667;27;98634;-66
2022/03/03 08:44:52;;;;;;;20.08;14.63;;;;;;;;;;5058417;27;99065;-66
2022/03/03 08:47:20;;;;;;;18.60;15.02;;;;;;;;;;5065735;27;99248;-66
2022/03/03 08:49:48;;;;;;;21.95;14.82;;;;;;;;;;5066130;27;100374;-66
2022/03/03 08:52:15;;;;;;;18.30;14.20;;;;;;;;;;5063915;27;98685;-66
2022/03/03 08:54:42;;;;;;;19.17;14.20;;;;;;;;;;5061869;27;100098;-66
2022/03/03 08:57:08;;;;;;;21.85;14.48;;;;;;;;;;5060509;27;100424;-66
2022/03/03 08:59:34;;;;;;;14.77;11.43;;;;;;;;;;5060042;27;99067;-66
2022/03/03 09:02:01;;;;;;;18.35;13.68;;;;;;;;;;5061453;27;100671;-66
2022/03/03 09:04:28;;;;;;;16.08;14.10;;;;;;;;;;5065996;27;98556;-67
2022/03/03 09:06:54;;;;;;;25.58;14.57;;;;;;;;;;5061187;27;99881;-66
2022/03/03 09:09:21;;;;;;;22.50;14.25;;;;;;;;;;5063400;27;100430;-66
2022/03/03 09:11:47;;;;;;;17.27;13.30;;;;;;;;;;5062914;27;98660;-66
2022/03/03 09:14:13;;;;;;;16.42;13.57;;;;;;;;;;5065649;27;100751;-66
2022/03/03 09:16:40;;;;;;;14.57;12.95;;;;;;;;;;5063437;27;100725;-67
2022/03/03 09:19:07;;;;;;;20.83;12.60;;;;;;;;;;5068485;27;98650;-66
2022/03/03 09:21:33;;;;;;;17.50;14.15;;;;;;;;;;5063973;27;100166;-66
2022/03/03 09:24:00;;;;;;;16.45;12.30;;;;;;;;;;5066502;27;100020;-67
2022/03/03 09:26:27;;;;;;;16.58;12.77;;;;;;;;;;5061450;27;99191;-67
2022/03/03 09:28:54;;;;;;;17.25;13.98;;;;;;;;;;5062610;27;100413;-67
2022/03/03 09:31:20;;;;;;;18.75;13.20;;;;;;;;;;5063657;27;98358;-67
2022/03/03 09:33:47;;;;;;;15.70;13.27;;;;;;;;;;5060485;27;99158;-67
2022/03/03 09:36:13;;;;;;;14.65;12.35;;;;;;;;;;5064723;27;99402;-67
2022/03/03 09:38:39;;;;;;;21.83;12.43;;;;;;;;;;5066910;27;99391;-67
2022/03/03 09:41:11;;;;;;;20.17;12.02;;;;;;;;;;5065197;27;100798;-68
2022/03/03 09:43:39;;;;;;;15.18;12.32;;;;;;;;;;5068896;27;100258;-67
2022/03/03 09:46:05;;;;;;;16.65;12.63;;;;;;;;;;5061269;27;100040;-66
2022/03/03 09:48:32;;;;;;;16.65;12.20;;;;;;;;;;5054687;27;99628;-67
2022/03/03 09:50:58;;;;;;;16.23;12.38;;;;;;;;;;5060065;27;98522;-67
2022/03/03 09:53:24;;;;;;;15.07;12.23;;;;;;;;;;5061042;27;99984;-66
2022/03/03 09:55:51;;;;;;;16.10;12.75;;;;;;;;;;5060257;27;99471;-66
2022/03/03 09:58:18;;;;;;;18.70;11.90;;;;;;;;;;5068258;27;98635;-66
2022/03/03 10:00:45;;;;;;;15.90;13.23;;;;;;;;;;5060702;27;100430;-66
2022/03/03 10:03:14;;;;;;;17.85;11.07;;;;;;;;;;5066719;27;101018;-67
2022/03/03 10:05:48;;;;;;;16.77;13.02;;;;;;;;;;5064088;27;98716;-67
2022/03/03 10:08:15;;;;;;;18.30;12.20;;;;;;;;;;5056929;27;100699;-67
2022/03/03 10:10:43;;;;;;;15.23;12.50;;;;;;;;;;5056078;27;98609;-67
2022/03/03 10:13:10;;;;;;;17.83;12.85;;;;;;;;;;5064611;27;99274;-67
2022/03/03 10:15:37;;;;;;;17.15;12.45;;;;;;;;;;5063288;27;100624;-67
2022/03/03 10:18:09;;;;;;;15.18;11.48;;;;;;;;;;5066889;27;98601;-66
2022/03/03 10:20:44;;;;;;;17.15;12.00;;;;;;;;;;5069080;27;99959;-67
2022/03/03 10:23:11;;;;;;;15.57;11.75;;;;;;;;;;5062904;27;100301;-67
2022/03/03 10:25:38;;;;;;;15.45;10.38;;;;;;;;;;5062628;27;98572;-68
2022/03/03 10:28:22;;;;;;;20.63;10.98;;;;;;;;;;5065610;27;100586;-66
2022/03/03 10:30:48;;;;;;;14.50;11.00;;;;;;;;;;5055029;27;98922;-67
2022/03/03 10:33:17;;;;;;;14.35;11.55;;;;;;;;;;5068924;27;99938;-66
2022/03/03 10:35:56;;;;;;;11.77;10.30;;;;;;;;;;5068955;27;100585;-66
2022/03/03 10:38:22;;;;;;;14.95;11.52;;;;;;;;;;5055764;27;99133;-65
2022/03/03 10:40:49;;;;;;;12.18;10.35;;;;;;;;;;5055032;27;99035;-66
2022/03/03 10:43:15;;;;;;;12.20;10.85;;;;;;;;;;5062567;27;98829;-66
2022/03/03 10:45:54;;;;;;;12.73;11.43;;;;;;;;;;5057806;27;98401;-66
2022/03/03 10:48:21;;;;;;;10.20;9.13;;;;;;;;;;5069510;27;98750;-66
2022/03/03 10:50:48;;;;;;;14.52;9.95;;;;;;;;;;5062166;27;98602;-66
2022/03/03 10:53:18;;;;;;;12.20;10.95;;;;;;;;;;5062992;27;100652;-66
2022/03/03 10:56:00;;;;;;;11.85;8.95;;;;;;;;;;5064853;27;100460;-66
2022/03/03 10:58:43;;;;;;;11.10;9.90;;;;;;;;;;5055810;27;100599;-66
2022/03/03 11:01:09;;;;;;;13.75;10.95;;;;;;;;;;5060928;27;99625;-66
2022/03/03 11:03:36;;;;;;;9.38;7.95;;;;;;;;;;5060742;27;100358;-66
2022/03/03 11:06:03;;;;;;;13.77;9.23;;;;;;;;;;5051215;27;104180;-67
2022/03/03 11:08:30;;;;;;;13.80;10.27;;;;;;;;;;5057872;27;101217;-66
2022/03/03 11:10:56;;;;;;;14.43;11.65;;;;;;;;;;5064413;27;99841;-67
2022/03/03 11:13:23;;;;;;;11.40;10.00;;;;;;;;;;5058128;27;99378;-67
2022/03/03 11:15:51;;;;;;;13.40;10.60;;;;;;;;;;5060965;27;100285;-66
2022/03/03 11:18:18;;;;;;;12.45;11.15;;;;;;;;;;5059341;27;99310;-67
2022/03/03 11:20:46;;;;;;;11.55;9.27;;;;;;;;;;5060529;27;99924;-66
2022/03/03 11:23:12;;;;;;;11.13;9.52;;;;;;;;;;5059930;27;99517;-67
2022/03/03 11:25:38;;;;;;;11.50;9.70;;;;;;;;;;5059580;27;101657;-66
2022/03/03 11:28:07;;;;;;;9.63;7.90;;;;;;;;;;5063191;27;100570;-66
2022/03/03 11:30:34;;;;;;;11.32;10.13;;;;;;;;;;5057898;27;99499;-67
2022/03/03 11:33:19;;;;;;;14.32;9.68;;;;;;;;;;5062179;27;99197;-66
2022/03/03 11:35:50;;;;;;;11.98;9.93;;;;;;;;;;5057944;27;99095;-65
2022/03/03 11:38:17;;;;;;;11.75;9.93;;;;;;;;;;5062670;27;98671;-67
2022/03/03 11:40:53;;;;;;;13.52;10.90;;;;;;;;;;5061609;27;99207;-66
2022/03/03 11:43:20;;;;;;;11.13;9.20;;;;;;;;;;5060026;27;101350;-66
2022/03/03 11:45:51;;;;;;;16.20;11.25;;;;;;;;;;5064587;27;98786;-66
2022/03/03 11:48:20;;;;;;;12.82;9.75;;;;;;;;;;5062537;27;101157;-66
2022/03/03 11:50:47;;;;;;;13.68;10.05;;;;;;;;;;5068260;27;99588;-66
2022/03/03 11:53:18;;;;;;;14.48;9.43;;;;;;;;;;5066262;27;100770;-66
2022/03/03 11:55:48;;;;;;;11.15;9.77;;;;;;;;;;5068675;27;100599;-67
2022/03/03 11:58:14;;;;;;;10.63;9.13;;;;;;;;;;5059129;27;98684;-67
2022/03/03 12:00:42;;;;;;;9.05;7.78;;;;;;;;;;5063875;27;99504;-67
2022/03/03 12:03:10;;;;;;;14.90;9.32;;;;;;;;;;5057687;27;100329;-66
2022/03/03 12:05:46;;;;;;;9.25;8.35;;;;;;;;;;5063026;27;99600;-66
2022/03/03 12:08:13;;;;;;;10.68;9.20;;;;;;;;;;5068869;27;99776;-66
2022/03/03 12:10:59;;;;;;;10.50;9.45;;;;;;;;;;5064639;27;100312;-66
2022/03/03 12:13:26;;;;;;;21.08;10.30;;;;;;;;;;5070034;27;98788;-65
2022/03/03 12:16:12;;;;;;;11.00;9.13;;;;;;;;;;5060770;27;99336;-66
2022/03/03 12:18:39;;;;;;;11.73;9.45;;;;;;;;;;5073375;27;99500;-66
2022/03/03 12:21:25;;;;;;;18.70;11.85;;;;;;;;;;5071631;27;99070;-67
2022/03/03 12:24:10;;;;;;;12.70;10.88;;;;;;;;;;5057680;27;99527;-67
2022/03/03 12:26:49;;;;;;;10.30;9.13;;;;;;;;;;5051180;27;97822;-67
2022/03/03 12:29:34;;;;;;;10.65;9.65;;;;;;;;;;5051862;27;99447;-66
2022/03/03 12:32:19;;;;;;;16.88;13.25;;;;;;;;;;5050544;27;100393;-66
2022/03/03 12:34:46;;;;;;;11.75;10.30;;;;;;;;;;5050183;27;99276;-66
2022/03/03 12:37:12;;;;;;;11.35;9.40;;;;;;;;;;5049559;27;99924;-67
2022/03/03 12:39:46;;;;;;;14.98;10.70;;;;;;;;;;5062880;27;99817;-67
2022/03/03 12:42:15;;;;;;;14.50;10.82;;;;;;;;;;5073533;27;98580;-68
2022/03/03 12:44:42;;;;;;;13.07;10.30;;;;;;;;;;5069612;27;99701;-67
2022/03/03 12:47:08;;;;;;;18.10;12.77;;;;;;;;;;5070513;27;98534;-66
2022/03/03 12:49:39;;;;;;;12.90;10.90;;;;;;;;;;5070931;27;100215;-66
2022/03/03 12:52:05;;;;;;;14.88;11.65;;;;;;;;;;5070192;27;99585;-67
2022/03/03 12:54:35;;;;;;;11.93;10.75;;;;;;;;;;5069945;27;99655;-66
2022/03/03 12:57:03;;;;;;;17.50;12.02;;;;;;;;;;5055364;27;99368;-66
2022/03/03 12:59:31;;;;;;;13.73;10.27;;;;;;;;;;5049083;27;101296;-66
2022/03/03 13:01:58;;;;;;;12.10;10.85;;;;;;;;;;5053592;27;98547;-67
2022/03/03 13:04:31;;;;;;;17.85;11.73;;;;;;;;;;5050129;27;100095;-67
2022/03/03 13:07:11;;;;;;;12.57;11.23;;;;;;;;;;5048946;27;98532;-67
2022/03/03 13:09:49;;;;;;;11.80;10.25;;;;;;;;;;5051105;27;99991;-67
2022/03/03 13:12:15;;;;;;;19.42;12.02;;;;;;;;;;5049271;27;100247;-67
2022/03/03 13:14:42;;;;;;;13.40;10.82;;;;;;;;;;5050254;27;98910;-67
2022/03/03 13:17:11;;;;;;;15.02;10.55;;;;;;;;;;5050189;27;99196;-67
2022/03/03 13:19:50;;;;;;;9.68;8.15;;;;;;;;;;5048989;27;99251;-67
2022/03/03 13:22:16;;;;;;;15.05;10.80;;;;;;;;;;5050684;27;98490;-67
2022/03/03 13:24:43;;;;;;;13.95;10.18;;;;;;;;;;5052345;27;99723;-67
2022/03/03 13:27:09;;;;;;;10.75;9.65;;;;;;;;;;5048872;27;99110;-67
2022/03/03 13:29:37;;;;;;;14.65;11.48;;;;;;;;;;5050310;27;100017;-67
2022/03/03 13:32:09;;;;;;;12.18;10.90;;;;;;;;;;5048863;27;99230;-66
2022/03/03 13:34:38;;;;;;;9.82;8.30;;;;;;;;;;5049456;27;98709;-67
2022/03/03 13:37:13;;;;;;;12.55;10.57;;;;;;;;;;5055318;27;99331;-67
2022/03/03 13:39:40;;;;;;;11.57;10.27;;;;;;;;;;5064646;27;100069;-67
2022/03/03 13:42:10;;;;;;;11.45;10.23;;;;;;;;;;5067217;27;97877;-67
2022/03/03 13:44:39;;;;;;;12.13;10.70;;;;;;;;;;5070300;27;99092;-67
2022/03/03 13:47:06;;;;;;;11.90;10.63;;;;;;;;;;5071114;27;99826;-66
2022/03/03 13:49:34;;;;;;;10.13;8.48;;;;;;;;;;5069016;27;100182;-66
2022/03/03 13:52:11;;;;;;;13.10;7.68;;;;;;;;;;5069371;27;99580;-66
2022/03/03 13:54:54;;;;;;;8.70;7.85;;;;;;;;;;5069487;27;98495;-67
2022/03/03 13:57:20;;;;;;;;;;;;;;;;;;5070689;27;99822;-66
2022/03/03 13:59:53;;;;;;;7.43;6.72;;;;;;;;;;5054443;27;129313;-67
2022/03/03 14:02:20;;;;;;;12.32;10.63;;;;;;;;;;5049072;27;99387;-66
2022/03/03 14:04:56;;;;;;;9.88;8.88;;;;;;;;;;5049445;27;99852;-66
2022/03/03 14:07:26;;;;;;;10.70;9.68;;;;;;;;;;5050561;27;99437;-66
2022/03/03 14:09:56;;;;;;;14.27;11.70;;;;;;;;;;5052127;27;98573;-66
2022/03/03 14:12:22;;;;;;;12.20;10.60;;;;;;;;;;5048177;27;99485;-66
2022/03/03 14:14:49;;;;;;;13.18;10.68;;;;;;;;;;5063623;27;99480;-67
2022/03/03 14:17:15;;;;;;;14.75;8.30;;;;;;;;;;5068096;27;99865;-66
2022/03/03 14:19:43;;;;;;;10.95;7.05;;;;;;;;;;5069485;27;99386;-66